sensor_id;sensor_type;location;lat;lon;timestamp;P1;durP1;ratioP1;P2;durP2;ratioP2
13704;SDS011;6924;52.122;9.952;2023-10-09T00:01:01;2.27;;;0.80;;
13704;SDS011;6924;52.122;9.952;2023-10-09T00:03:30;2.70;;;1.10;;
13704;SDS011;6924;52.122;9.952;2023-10-09T00:05:58;1.20;;;0.90;;
13704;SDS011;6924;52.122;9.952;2023-10-09T00:08:26;0.97;;;0.97;;
13704;SDS011;6924;52.122;9.952;2023-10-09T00:10:56;2.27;;;0.90;;
13704;SDS011;6924;52.122;9.952;2023-10-09T00:13:38;1.03;;;0.70;;
13704;SDS011;6924;52.122;9.952;2023-10-09T00:16:14;2.10;;;1.00;;
13704;SDS011;6924;52.122;9.952;2023-10-09T00:18:48;1.57;;;0.90;;
13704;SDS011;6924;52.122;9.952;2023-10-09T00:21:16;1.37;;;0.90;;
13704;SDS011;6924;52.122;9.952;2023-10-09T00:23:45;1.70;;;1.07;;
13704;SDS011;6924;52.122;9.952;2023-10-09T00:26:17;2.60;;;1.27;;
13704;SDS011;6924;52.122;9.952;2023-10-09T00:28:44;2.30;;;0.93;;
13704;SDS011;6924;52.122;9.952;2023-10-09T00:31:12;1.67;;;0.90;;
13704;SDS011;6924;52.122;9.952;2023-10-09T00:33:41;2.10;;;1.13;;
13704;SDS011;6924;52.122;9.952;2023-10-09T00:36:08;2.20;;;0.90;;
13704;SDS011;6924;52.122;9.952;2023-10-09T00:38:37;1.90;;;1.00;;
13704;SDS011;6924;52.122;9.952;2023-10-09T00:41:09;2.30;;;1.30;;
13704;SDS011;6924;52.122;9.952;2023-10-09T00:43:37;2.00;;;1.13;;
13704;SDS011;6924;52.122;9.952;2023-10-09T00:46:08;2.00;;;1.23;;
13704;SDS011;6924;52.122;9.952;2023-10-09T00:48:49;1.50;;;1.13;;
13704;SDS011;6924;52.122;9.952;2023-10-09T00:51:17;5.27;;;1.37;;
13704;SDS011;6924;52.122;9.952;2023-10-09T00:53:47;2.40;;;1.30;;
13704;SDS011;6924;52.122;9.952;2023-10-09T00:56:16;3.47;;;1.50;;
13704;SDS011;6924;52.122;9.952;2023-10-09T00:58:55;3.30;;;1.40;;
13704;SDS011;6924;52.122;9.952;2023-10-09T01:01:25;2.57;;;1.27;;
13704;SDS011;6924;52.122;9.952;2023-10-09T01:03:59;3.30;;;1.60;;
13704;SDS011;6924;52.122;9.952;2023-10-09T01:06:31;6.10;;;1.53;;
13704;SDS011;6924;52.122;9.952;2023-10-09T01:09:00;2.37;;;1.30;;
13704;SDS011;6924;52.122;9.952;2023-10-09T01:11:36;1.83;;;1.10;;
13704;SDS011;6924;52.122;9.952;2023-10-09T01:14:12;2.30;;;1.17;;
13704;SDS011;6924;52.122;9.952;2023-10-09T01:16:40;2.60;;;1.37;;
13704;SDS011;6924;52.122;9.952;2023-10-09T01:19:08;2.37;;;1.13;;
13704;SDS011;6924;52.122;9.952;2023-10-09T01:21:45;1.97;;;1.23;;
13704;SDS011;6924;52.122;9.952;2023-10-09T01:24:13;2.50;;;1.37;;
13704;SDS011;6924;52.122;9.952;2023-10-09T01:26:41;1.77;;;1.40;;
13704;SDS011;6924;52.122;9.952;2023-10-09T01:29:11;2.67;;;1.30;;
13704;SDS011;6924;52.122;9.952;2023-10-09T01:31:41;1.67;;;1.20;;
13704;SDS011;6924;52.122;9.952;2023-10-09T01:34:12;3.20;;;1.03;;
13704;SDS011;6924;52.122;9.952;2023-10-09T01:36:40;2.03;;;1.60;;
13704;SDS011;6924;52.122;9.952;2023-10-09T01:39:07;2.70;;;1.50;;
13704;SDS011;6924;52.122;9.952;2023-10-09T01:41:47;2.83;;;1.97;;
13704;SDS011;6924;52.122;9.952;2023-10-09T01:44:17;2.97;;;1.43;;
13704;SDS011;6924;52.122;9.952;2023-10-09T01:46:44;1.80;;;1.23;;
13704;SDS011;6924;52.122;9.952;2023-10-09T01:49:11;3.43;;;1.63;;
13704;SDS011;6924;52.122;9.952;2023-10-09T01:51:46;1.80;;;1.47;;
13704;SDS011;6924;52.122;9.952;2023-10-09T01:54:14;2.80;;;2.00;;
13704;SDS011;6924;52.122;9.952;2023-10-09T01:56:42;3.93;;;1.47;;
13704;SDS011;6924;52.122;9.952;2023-10-09T01:59:13;4.00;;;2.07;;
13704;SDS011;6924;52.122;9.952;2023-10-09T02:01:40;3.93;;;1.67;;
13704;SDS011;6924;52.122;9.952;2023-10-09T02:04:12;2.67;;;1.80;;
13704;SDS011;6924;52.122;9.952;2023-10-09T02:06:45;3.63;;;1.67;;
13704;SDS011;6924;52.122;9.952;2023-10-09T02:09:16;2.37;;;1.43;;
13704;SDS011;6924;52.122;9.952;2023-10-09T02:11:48;1.97;;;1.50;;
13704;SDS011;6924;52.122;9.952;2023-10-09T02:14:17;2.43;;;1.97;;
13704;SDS011;6924;52.122;9.952;2023-10-09T02:16:45;3.07;;;2.07;;
13704;SDS011;6924;52.122;9.952;2023-10-09T02:19:28;3.77;;;2.37;;
13704;SDS011;6924;52.122;9.952;2023-10-09T02:21:58;3.57;;;2.17;;
13704;SDS011;6924;52.122;9.952;2023-10-09T02:24:26;3.43;;;2.27;;
13704;SDS011;6924;52.122;9.952;2023-10-09T02:27:06;4.23;;;2.27;;
13704;SDS011;6924;52.122;9.952;2023-10-09T02:29:34;3.10;;;2.67;;
13704;SDS011;6924;52.122;9.952;2023-10-09T02:32:03;3.80;;;2.80;;
13704;SDS011;6924;52.122;9.952;2023-10-09T02:34:42;5.90;;;3.63;;
13704;SDS011;6924;52.122;9.952;2023-10-09T02:37:11;4.70;;;2.50;;
13704;SDS011;6924;52.122;9.952;2023-10-09T02:39:38;3.80;;;1.90;;
13704;SDS011;6924;52.122;9.952;2023-10-09T02:42:08;4.53;;;2.13;;
13704;SDS011;6924;52.122;9.952;2023-10-09T02:44:46;1.93;;;1.53;;
13704;SDS011;6924;52.122;9.952;2023-10-09T02:47:15;2.87;;;1.40;;
13704;SDS011;6924;52.122;9.952;2023-10-09T02:49:45;3.27;;;1.37;;
13704;SDS011;6924;52.122;9.952;2023-10-09T02:52:13;1.97;;;1.10;;
13704;SDS011;6924;52.122;9.952;2023-10-09T02:54:43;5.10;;;1.60;;
13704;SDS011;6924;52.122;9.952;2023-10-09T02:57:12;4.53;;;1.70;;
13704;SDS011;6924;52.122;9.952;2023-10-09T02:59:48;2.80;;;1.50;;
13704;SDS011;6924;52.122;9.952;2023-10-09T03:02:16;2.80;;;1.50;;
13704;SDS011;6924;52.122;9.952;2023-10-09T03:04:43;2.60;;;1.50;;
13704;SDS011;6924;52.122;9.952;2023-10-09T03:07:10;3.47;;;1.67;;
13704;SDS011;6924;52.122;9.952;2023-10-09T03:09:39;2.90;;;2.10;;
13704;SDS011;6924;52.122;9.952;2023-10-09T03:12:06;3.53;;;2.37;;
13704;SDS011;6924;52.122;9.952;2023-10-09T03:14:35;4.40;;;2.07;;
13704;SDS011;6924;52.122;9.952;2023-10-09T03:17:05;4.50;;;2.87;;
13704;SDS011;6924;52.122;9.952;2023-10-09T03:19:36;5.03;;;2.53;;
13704;SDS011;6924;52.122;9.952;2023-10-09T03:22:03;5.93;;;3.20;;
13704;SDS011;6924;52.122;9.952;2023-10-09T03:24:31;3.90;;;3.13;;
13704;SDS011;6924;52.122;9.952;2023-10-09T03:26:57;3.20;;;2.90;;
13704;SDS011;6924;52.122;9.952;2023-10-09T03:29:25;6.43;;;2.33;;
13704;SDS011;6924;52.122;9.952;2023-10-09T03:31:52;5.97;;;3.27;;
13704;SDS011;6924;52.122;9.952;2023-10-09T03:34:22;5.13;;;3.23;;
13704;SDS011;6924;52.122;9.952;2023-10-09T03:36:49;4.80;;;3.33;;
13704;SDS011;6924;52.122;9.952;2023-10-09T03:39:28;5.43;;;3.07;;
13704;SDS011;6924;52.122;9.952;2023-10-09T03:41:59;6.07;;;3.37;;
13704;SDS011;6924;52.122;9.952;2023-10-09T03:44:30;4.83;;;3.23;;
13704;SDS011;6924;52.122;9.952;2023-10-09T03:46:59;8.40;;;4.40;;
13704;SDS011;6924;52.122;9.952;2023-10-09T03:49:28;9.50;;;5.20;;
13704;SDS011;6924;52.122;9.952;2023-10-09T03:51:55;7.13;;;4.70;;
13704;SDS011;6924;52.122;9.952;2023-10-09T03:54:21;9.30;;;4.40;;
13704;SDS011;6924;52.122;9.952;2023-10-09T03:56:49;6.30;;;4.57;;
13704;SDS011;6924;52.122;9.952;2023-10-09T03:59:16;6.60;;;5.03;;
13704;SDS011;6924;52.122;9.952;2023-10-09T04:01:45;6.53;;;4.73;;
13704;SDS011;6924;52.122;9.952;2023-10-09T04:04:13;4.93;;;4.43;;
13704;SDS011;6924;52.122;9.952;2023-10-09T04:06:41;10.77;;;5.40;;
13704;SDS011;6924;52.122;9.952;2023-10-09T04:09:07;8.77;;;7.33;;
13704;SDS011;6924;52.122;9.952;2023-10-09T04:11:53;12.07;;;7.50;;
13704;SDS011;6924;52.122;9.952;2023-10-09T04:14:39;13.70;;;9.67;;
13704;SDS011;6924;52.122;9.952;2023-10-09T04:17:14;16.53;;;11.07;;
13704;SDS011;6924;52.122;9.952;2023-10-09T04:19:55;12.50;;;10.07;;
13704;SDS011;6924;52.122;9.952;2023-10-09T04:22:36;17.03;;;10.37;;
13704;SDS011;6924;52.122;9.952;2023-10-09T04:25:05;13.07;;;11.07;;
13704;SDS011;6924;52.122;9.952;2023-10-09T04:27:39;18.90;;;10.83;;
13704;SDS011;6924;52.122;9.952;2023-10-09T04:30:06;17.33;;;11.70;;
13704;SDS011;6924;52.122;9.952;2023-10-09T04:32:40;16.53;;;12.17;;
13704;SDS011;6924;52.122;9.952;2023-10-09T04:35:09;19.97;;;12.43;;
13704;SDS011;6924;52.122;9.952;2023-10-09T04:37:51;23.63;;;12.57;;
13704;SDS011;6924;52.122;9.952;2023-10-09T04:40:28;17.40;;;13.27;;
13704;SDS011;6924;52.122;9.952;2023-10-09T04:43:13;19.60;;;13.43;;
13704;SDS011;6924;52.122;9.952;2023-10-09T04:45:45;19.37;;;13.70;;
13704;SDS011;6924;52.122;9.952;2023-10-09T04:48:29;20.83;;;13.37;;
13704;SDS011;6924;52.122;9.952;2023-10-09T04:51:03;16.33;;;12.43;;
13704;SDS011;6924;52.122;9.952;2023-10-09T04:54:00;20.27;;;12.47;;
13704;SDS011;6924;52.122;9.952;2023-10-09T04:56:39;19.23;;;13.17;;
13704;SDS011;6924;52.122;9.952;2023-10-09T04:59:17;24.00;;;13.37;;
13704;SDS011;6924;52.122;9.952;2023-10-09T05:01:45;21.90;;;13.50;;
13704;SDS011;6924;52.122;9.952;2023-10-09T05:04:22;14.87;;;12.57;;
13704;SDS011;6924;52.122;9.952;2023-10-09T05:07:04;19.90;;;12.93;;
13704;SDS011;6924;52.122;9.952;2023-10-09T05:09:49;19.17;;;11.87;;
13704;SDS011;6924;52.122;9.952;2023-10-09T05:12:21;23.70;;;13.90;;
13704;SDS011;6924;52.122;9.952;2023-10-09T05:14:52;21.07;;;14.00;;
13704;SDS011;6924;52.122;9.952;2023-10-09T05:17:33;21.03;;;13.43;;
13704;SDS011;6924;52.122;9.952;2023-10-09T05:20:01;22.33;;;12.10;;
13704;SDS011;6924;52.122;9.952;2023-10-09T05:22:53;16.40;;;12.43;;
13704;SDS011;6924;52.122;9.952;2023-10-09T05:25:47;21.43;;;13.70;;
13704;SDS011;6924;52.122;9.952;2023-10-09T05:28:20;21.93;;;12.53;;
13704;SDS011;6924;52.122;9.952;2023-10-09T05:31:04;20.37;;;13.13;;
13704;SDS011;6924;52.122;9.952;2023-10-09T05:33:33;19.97;;;12.47;;
13704;SDS011;6924;52.122;9.952;2023-10-09T05:36:00;21.97;;;13.37;;
13704;SDS011;6924;52.122;9.952;2023-10-09T05:39:00;18.57;;;12.90;;
13704;SDS011;6924;52.122;9.952;2023-10-09T05:41:42;17.90;;;12.60;;
13704;SDS011;6924;52.122;9.952;2023-10-09T05:44:26;17.87;;;12.27;;
13704;SDS011;6924;52.122;9.952;2023-10-09T05:47:10;18.93;;;14.07;;
13704;SDS011;6924;52.122;9.952;2023-10-09T05:49:56;18.93;;;12.07;;
13704;SDS011;6924;52.122;9.952;2023-10-09T05:52:46;23.23;;;12.40;;
13704;SDS011;6924;52.122;9.952;2023-10-09T05:55:34;20.27;;;11.57;;
13704;SDS011;6924;52.122;9.952;2023-10-09T05:58:20;24.90;;;12.23;;
13704;SDS011;6924;52.122;9.952;2023-10-09T06:01:03;27.67;;;12.60;;
13704;SDS011;6924;52.122;9.952;2023-10-09T06:03:47;24.30;;;12.60;;
13704;SDS011;6924;52.122;9.952;2023-10-09T06:06:37;17.93;;;12.17;;
13704;SDS011;6924;52.122;9.952;2023-10-09T06:09:09;16.30;;;11.43;;
13704;SDS011;6924;52.122;9.952;2023-10-09T06:11:53;16.90;;;12.53;;
13704;SDS011;6924;52.122;9.952;2023-10-09T06:14:42;21.27;;;12.67;;
13704;SDS011;6924;52.122;9.952;2023-10-09T06:17:14;16.37;;;12.23;;
13704;SDS011;6924;52.122;9.952;2023-10-09T06:19:48;21.37;;;11.70;;
13704;SDS011;6924;52.122;9.952;2023-10-09T06:22:14;17.30;;;11.93;;
13704;SDS011;6924;52.122;9.952;2023-10-09T06:25:16;19.33;;;10.83;;
13704;SDS011;6924;52.122;9.952;2023-10-09T06:27:43;19.27;;;14.20;;
13704;SDS011;6924;52.122;9.952;2023-10-09T06:30:24;16.63;;;12.37;;
13704;SDS011;6924;52.122;9.952;2023-10-09T06:32:51;18.27;;;13.07;;
13704;SDS011;6924;52.122;9.952;2023-10-09T06:35:23;26.30;;;12.43;;
13704;SDS011;6924;52.122;9.952;2023-10-09T06:37:55;24.60;;;12.83;;
13704;SDS011;6924;52.122;9.952;2023-10-09T06:40:40;19.87;;;13.13;;
13704;SDS011;6924;52.122;9.952;2023-10-09T06:43:24;26.13;;;12.93;;
13704;SDS011;6924;52.122;9.952;2023-10-09T06:45:55;22.70;;;12.63;;
13704;SDS011;6924;52.122;9.952;2023-10-09T06:48:44;19.57;;;11.83;;
13704;SDS011;6924;52.122;9.952;2023-10-09T06:51:21;19.77;;;12.07;;
13704;SDS011;6924;52.122;9.952;2023-10-09T06:54:06;21.60;;;12.60;;
13704;SDS011;6924;52.122;9.952;2023-10-09T06:56:43;17.10;;;13.63;;
13704;SDS011;6924;52.122;9.952;2023-10-09T06:59:39;18.40;;;12.17;;
13704;SDS011;6924;52.122;9.952;2023-10-09T07:02:09;20.37;;;12.00;;
13704;SDS011;6924;52.122;9.952;2023-10-09T07:04:51;19.07;;;12.23;;
13704;SDS011;6924;52.122;9.952;2023-10-09T07:07:20;18.97;;;13.63;;
13704;SDS011;6924;52.122;9.952;2023-10-09T07:09:49;22.47;;;12.30;;
13704;SDS011;6924;52.122;9.952;2023-10-09T07:12:34;20.00;;;13.43;;
13704;SDS011;6924;52.122;9.952;2023-10-09T07:15:08;20.90;;;12.73;;
13704;SDS011;6924;52.122;9.952;2023-10-09T07:17:53;20.30;;;13.47;;
13704;SDS011;6924;52.122;9.952;2023-10-09T07:20:20;21.50;;;13.50;;
13704;SDS011;6924;52.122;9.952;2023-10-09T07:23:10;16.27;;;12.87;;
13704;SDS011;6924;52.122;9.952;2023-10-09T07:25:43;19.83;;;12.23;;
13704;SDS011;6924;52.122;9.952;2023-10-09T07:28:23;16.67;;;12.07;;
13704;SDS011;6924;52.122;9.952;2023-10-09T07:31:01;18.30;;;11.57;;
13704;SDS011;6924;52.122;9.952;2023-10-09T07:33:29;17.63;;;11.80;;
13704;SDS011;6924;52.122;9.952;2023-10-09T07:36:29;15.80;;;12.10;;
13704;SDS011;6924;52.122;9.952;2023-10-09T07:39:02;19.90;;;12.43;;
13704;SDS011;6924;52.122;9.952;2023-10-09T07:41:38;23.17;;;13.03;;
13704;SDS011;6924;52.122;9.952;2023-10-09T07:44:09;20.37;;;11.87;;
13704;SDS011;6924;52.122;9.952;2023-10-09T07:46:59;26.73;;;12.13;;
13704;SDS011;6924;52.122;9.952;2023-10-09T07:49:47;20.40;;;12.80;;
13704;SDS011;6924;52.122;9.952;2023-10-09T07:52:25;17.57;;;12.80;;
13704;SDS011;6924;52.122;9.952;2023-10-09T07:54:52;19.20;;;12.97;;
13704;SDS011;6924;52.122;9.952;2023-10-09T07:57:27;27.13;;;13.53;;
13704;SDS011;6924;52.122;9.952;2023-10-09T08:00:03;24.47;;;14.97;;
13704;SDS011;6924;52.122;9.952;2023-10-09T08:02:55;18.63;;;12.80;;
13704;SDS011;6924;52.122;9.952;2023-10-09T08:05:25;23.03;;;14.17;;
13704;SDS011;6924;52.122;9.952;2023-10-09T08:07:59;24.17;;;13.83;;
13704;SDS011;6924;52.122;9.952;2023-10-09T08:10:52;22.47;;;14.27;;
13704;SDS011;6924;52.122;9.952;2023-10-09T08:13:36;24.10;;;13.40;;
13704;SDS011;6924;52.122;9.952;2023-10-09T08:16:25;23.87;;;13.80;;
13704;SDS011;6924;52.122;9.952;2023-10-09T08:19:01;19.43;;;13.73;;
13704;SDS011;6924;52.122;9.952;2023-10-09T08:21:45;17.63;;;13.30;;
13704;SDS011;6924;52.122;9.952;2023-10-09T08:24:33;20.17;;;12.77;;
13704;SDS011;6924;52.122;9.952;2023-10-09T08:27:06;20.07;;;13.27;;
13704;SDS011;6924;52.122;9.952;2023-10-09T08:29:50;19.37;;;13.13;;
13704;SDS011;6924;52.122;9.952;2023-10-09T08:32:37;15.93;;;13.07;;
13704;SDS011;6924;52.122;9.952;2023-10-09T08:35:06;18.10;;;13.07;;
13704;SDS011;6924;52.122;9.952;2023-10-09T08:37:44;19.13;;;13.10;;
13704;SDS011;6924;52.122;9.952;2023-10-09T08:40:14;24.63;;;14.13;;
13704;SDS011;6924;52.122;9.952;2023-10-09T08:42:46;16.53;;;13.23;;
13704;SDS011;6924;52.122;9.952;2023-10-09T08:45:20;21.43;;;13.27;;
13704;SDS011;6924;52.122;9.952;2023-10-09T08:47:50;21.93;;;14.20;;
13704;SDS011;6924;52.122;9.952;2023-10-09T08:50:20;18.17;;;12.70;;
13704;SDS011;6924;52.122;9.952;2023-10-09T08:52:47;16.10;;;12.67;;
13704;SDS011;6924;52.122;9.952;2023-10-09T08:55:16;18.40;;;13.60;;
13704;SDS011;6924;52.122;9.952;2023-10-09T08:57:43;18.00;;;13.40;;
13704;SDS011;6924;52.122;9.952;2023-10-09T09:00:16;20.63;;;12.37;;
13704;SDS011;6924;52.122;9.952;2023-10-09T09:02:46;19.20;;;11.77;;
13704;SDS011;6924;52.122;9.952;2023-10-09T09:05:16;16.30;;;12.60;;
13704;SDS011;6924;52.122;9.952;2023-10-09T09:07:43;17.37;;;11.73;;
13704;SDS011;6924;52.122;9.952;2023-10-09T09:10:10;16.83;;;12.17;;
13704;SDS011;6924;52.122;9.952;2023-10-09T09:12:44;13.53;;;11.83;;
13704;SDS011;6924;52.122;9.952;2023-10-09T09:15:13;19.70;;;11.80;;
13704;SDS011;6924;52.122;9.952;2023-10-09T09:17:45;15.10;;;11.60;;
13704;SDS011;6924;52.122;9.952;2023-10-09T09:20:18;17.03;;;11.30;;
13704;SDS011;6924;52.122;9.952;2023-10-09T09:22:51;16.57;;;11.47;;
13704;SDS011;6924;52.122;9.952;2023-10-09T09:25:19;15.87;;;12.67;;
13704;SDS011;6924;52.122;9.952;2023-10-09T09:27:50;16.40;;;11.37;;
13704;SDS011;6924;52.122;9.952;2023-10-09T09:30:23;19.10;;;12.93;;
13704;SDS011;6924;52.122;9.952;2023-10-09T09:32:50;15.23;;;11.50;;
13704;SDS011;6924;52.122;9.952;2023-10-09T09:35:37;13.77;;;10.83;;
13704;SDS011;6924;52.122;9.952;2023-10-09T09:38:04;14.93;;;11.40;;
13704;SDS011;6924;52.122;9.952;2023-10-09T09:40:32;22.77;;;10.87;;
13704;SDS011;6924;52.122;9.952;2023-10-09T09:43:07;17.43;;;11.17;;
13704;SDS011;6924;52.122;9.952;2023-10-09T09:45:46;17.80;;;11.00;;
13704;SDS011;6924;52.122;9.952;2023-10-09T09:48:14;14.50;;;10.17;;
13704;SDS011;6924;52.122;9.952;2023-10-09T09:50:42;21.23;;;11.67;;
13704;SDS011;6924;52.122;9.952;2023-10-09T09:53:09;13.03;;;11.60;;
13704;SDS011;6924;52.122;9.952;2023-10-09T09:55:42;14.83;;;10.87;;
13704;SDS011;6924;52.122;9.952;2023-10-09T09:58:18;14.87;;;12.53;;
13704;SDS011;6924;52.122;9.952;2023-10-09T10:00:45;13.83;;;12.37;;
13704;SDS011;6924;52.122;9.952;2023-10-09T10:03:18;18.27;;;12.93;;
13704;SDS011;6924;52.122;9.952;2023-10-09T10:05:48;16.13;;;12.63;;
13704;SDS011;6924;52.122;9.952;2023-10-09T10:08:19;14.37;;;12.87;;
13704;SDS011;6924;52.122;9.952;2023-10-09T10:10:47;19.73;;;13.10;;
13704;SDS011;6924;52.122;9.952;2023-10-09T10:13:19;14.57;;;13.00;;
13704;SDS011;6924;52.122;9.952;2023-10-09T10:16:24;16.57;;;13.23;;
13704;SDS011;6924;52.122;9.952;2023-10-09T10:18:59;19.73;;;14.50;;
13704;SDS011;6924;52.122;9.952;2023-10-09T10:21:46;22.07;;;14.87;;
13704;SDS011;6924;52.122;9.952;2023-10-09T10:24:40;17.63;;;13.40;;
13704;SDS011;6924;52.122;9.952;2023-10-09T10:27:20;17.27;;;13.27;;
13704;SDS011;6924;52.122;9.952;2023-10-09T10:33:02;14.80;;;13.30;;
13704;SDS011;6924;52.122;9.952;2023-10-09T10:35:39;14.10;;;12.70;;
13704;SDS011;6924;52.122;9.952;2023-10-09T10:38:23;15.43;;;13.77;;
13704;SDS011;6924;52.122;9.952;2023-10-09T10:41:08;14.13;;;12.63;;
13704;SDS011;6924;52.122;9.952;2023-10-09T10:43:37;15.53;;;12.47;;
13704;SDS011;6924;52.122;9.952;2023-10-09T10:46:21;13.77;;;12.47;;
13704;SDS011;6924;52.122;9.952;2023-10-09T10:49:03;15.20;;;12.00;;
13704;SDS011;6924;52.122;9.952;2023-10-09T10:51:45;12.73;;;11.43;;
13704;SDS011;6924;52.122;9.952;2023-10-09T10:54:21;12.33;;;11.13;;
13704;SDS011;6924;52.122;9.952;2023-10-09T10:57:18;15.07;;;11.37;;
13704;SDS011;6924;52.122;9.952;2023-10-09T10:59:57;16.97;;;12.57;;
13704;SDS011;6924;52.122;9.952;2023-10-09T11:02:40;12.23;;;11.03;;
13704;SDS011;6924;52.122;9.952;2023-10-09T11:05:08;12.33;;;11.10;;
13704;SDS011;6924;52.122;9.952;2023-10-09T11:07:48;12.53;;;11.37;;
13704;SDS011;6924;52.122;9.952;2023-10-09T11:10:21;17.13;;;11.10;;
13704;SDS011;6924;52.122;9.952;2023-10-09T11:12:53;12.27;;;11.07;;
13704;SDS011;6924;52.122;9.952;2023-10-09T11:15:33;11.80;;;10.60;;
13704;SDS011;6924;52.122;9.952;2023-10-09T11:18:11;13.23;;;11.83;;
13704;SDS011;6924;52.122;9.952;2023-10-09T11:20:48;13.27;;;11.73;;
13704;SDS011;6924;52.122;9.952;2023-10-09T11:23:39;13.37;;;12.10;;
13704;SDS011;6924;52.122;9.952;2023-10-09T11:26:18;14.00;;;11.47;;
13704;SDS011;6924;52.122;9.952;2023-10-09T11:29:05;14.53;;;12.27;;
13704;SDS011;6924;52.122;9.952;2023-10-09T11:31:57;16.00;;;12.77;;
13704;SDS011;6924;52.122;9.952;2023-10-09T11:34:26;14.30;;;12.90;;
13704;SDS011;6924;52.122;9.952;2023-10-09T11:36:57;14.90;;;13.40;;
13704;SDS011;6924;52.122;9.952;2023-10-09T11:39:24;16.63;;;14.07;;
13704;SDS011;6924;52.122;9.952;2023-10-09T11:42:03;17.17;;;13.27;;
13704;SDS011;6924;52.122;9.952;2023-10-09T11:44:39;15.27;;;13.87;;
13704;SDS011;6924;52.122;9.952;2023-10-09T11:47:09;15.13;;;13.83;;
13704;SDS011;6924;52.122;9.952;2023-10-09T11:49:59;14.13;;;12.67;;
13704;SDS011;6924;52.122;9.952;2023-10-09T11:52:57;14.03;;;12.63;;
13704;SDS011;6924;52.122;9.952;2023-10-09T11:55:44;13.70;;;12.50;;
13704;SDS011;6924;52.122;9.952;2023-10-09T11:58:13;11.90;;;10.87;;
13704;SDS011;6924;52.122;9.952;2023-10-09T12:00:47;12.47;;;11.37;;
13704;SDS011;6924;52.122;9.952;2023-10-09T12:03:15;11.13;;;10.23;;
13704;SDS011;6924;52.122;9.952;2023-10-09T12:05:43;12.23;;;11.23;;
13704;SDS011;6924;52.122;9.952;2023-10-09T12:08:10;10.37;;;9.53;;
13704;SDS011;6924;52.122;9.952;2023-10-09T12:10:40;10.43;;;9.20;;
13704;SDS011;6924;52.122;9.952;2023-10-09T12:13:07;9.47;;;8.77;;
13704;SDS011;6924;52.122;9.952;2023-10-09T12:15:34;8.50;;;7.80;;
13704;SDS011;6924;52.122;9.952;2023-10-09T12:18:04;7.50;;;6.83;;
13704;SDS011;6924;52.122;9.952;2023-10-09T12:20:34;7.77;;;6.97;;
13704;SDS011;6924;52.122;9.952;2023-10-09T12:23:02;8.30;;;7.60;;
13704;SDS011;6924;52.122;9.952;2023-10-09T12:25:31;8.87;;;8.03;;
13704;SDS011;6924;52.122;9.952;2023-10-09T12:27:58;7.93;;;7.23;;
13704;SDS011;6924;52.122;9.952;2023-10-09T12:30:26;8.77;;;8.07;;
13704;SDS011;6924;52.122;9.952;2023-10-09T12:32:54;8.27;;;7.47;;
13704;SDS011;6924;52.122;9.952;2023-10-09T12:35:22;8.23;;;7.43;;
13704;SDS011;6924;52.122;9.952;2023-10-09T12:37:50;8.00;;;7.30;;
13704;SDS011;6924;52.122;9.952;2023-10-09T12:40:18;7.70;;;7.00;;
13704;SDS011;6924;52.122;9.952;2023-10-09T12:42:49;7.17;;;6.67;;
13704;SDS011;6924;52.122;9.952;2023-10-09T12:45:17;7.33;;;6.63;;
13704;SDS011;6924;52.122;9.952;2023-10-09T12:47:51;7.47;;;6.77;;
13704;SDS011;6924;52.122;9.952;2023-10-09T12:50:17;7.23;;;6.70;;
13704;SDS011;6924;52.122;9.952;2023-10-09T12:52:52;7.27;;;6.57;;
13704;SDS011;6924;52.122;9.952;2023-10-09T12:55:21;7.43;;;6.83;;
13704;SDS011;6924;52.122;9.952;2023-10-09T12:57:56;7.53;;;6.73;;
13704;SDS011;6924;52.122;9.952;2023-10-09T13:00:25;7.13;;;6.47;;
13704;SDS011;6924;52.122;9.952;2023-10-09T13:02:52;7.73;;;6.93;;
13704;SDS011;6924;52.122;9.952;2023-10-09T13:05:18;10.27;;;7.03;;
13704;SDS011;6924;52.122;9.952;2023-10-09T13:07:51;7.77;;;7.07;;
13704;SDS011;6924;52.122;9.952;2023-10-09T13:10:17;8.00;;;7.13;;
13704;SDS011;6924;52.122;9.952;2023-10-09T13:12:45;7.87;;;7.00;;
13704;SDS011;6924;52.122;9.952;2023-10-09T13:15:20;7.63;;;7.03;;
13704;SDS011;6924;52.122;9.952;2023-10-09T13:17:47;7.23;;;6.63;;
13704;SDS011;6924;52.122;9.952;2023-10-09T13:20:13;7.67;;;6.83;;
13704;SDS011;6924;52.122;9.952;2023-10-09T13:22:41;8.60;;;7.90;;
13704;SDS011;6924;52.122;9.952;2023-10-09T13:25:10;7.23;;;6.60;;
13704;SDS011;6924;52.122;9.952;2023-10-09T13:27:51;6.87;;;6.27;;
13704;SDS011;6924;52.122;9.952;2023-10-09T13:30:17;7.53;;;6.80;;
13704;SDS011;6924;52.122;9.952;2023-10-09T13:32:48;7.80;;;7.20;;
13704;SDS011;6924;52.122;9.952;2023-10-09T13:35:15;10.43;;;6.80;;
13704;SDS011;6924;52.122;9.952;2023-10-09T13:37:43;7.97;;;7.07;;
13704;SDS011;6924;52.122;9.952;2023-10-09T13:40:16;7.97;;;7.20;;
13704;SDS011;6924;52.122;9.952;2023-10-09T13:42:53;7.20;;;6.53;;
13704;SDS011;6924;52.122;9.952;2023-10-09T13:45:23;7.60;;;6.90;;
13704;SDS011;6924;52.122;9.952;2023-10-09T13:47:52;7.07;;;6.47;;
13704;SDS011;6924;52.122;9.952;2023-10-09T13:50:19;6.90;;;6.37;;
13704;SDS011;6924;52.122;9.952;2023-10-09T13:52:47;8.33;;;7.53;;
13704;SDS011;6924;52.122;9.952;2023-10-09T13:55:14;6.93;;;6.33;;
13704;SDS011;6924;52.122;9.952;2023-10-09T13:57:41;7.53;;;7.00;;
13704;SDS011;6924;52.122;9.952;2023-10-09T14:00:12;7.57;;;6.87;;
13704;SDS011;6924;52.122;9.952;2023-10-09T14:02:42;7.23;;;6.57;;
13704;SDS011;6924;52.122;9.952;2023-10-09T14:05:11;6.87;;;6.27;;
13704;SDS011;6924;52.122;9.952;2023-10-09T14:07:38;7.17;;;6.50;;
13704;SDS011;6924;52.122;9.952;2023-10-09T14:10:07;7.37;;;6.73;;
13704;SDS011;6924;52.122;9.952;2023-10-09T14:12:42;9.27;;;8.37;;
13704;SDS011;6924;52.122;9.952;2023-10-09T14:15:09;8.43;;;7.63;;
13704;SDS011;6924;52.122;9.952;2023-10-09T14:17:43;7.47;;;6.77;;
13704;SDS011;6924;52.122;9.952;2023-10-09T14:20:11;8.23;;;7.53;;
13704;SDS011;6924;52.122;9.952;2023-10-09T14:22:56;7.80;;;7.17;;
13704;SDS011;6924;52.122;9.952;2023-10-09T14:25:25;8.93;;;7.60;;
13704;SDS011;6924;52.122;9.952;2023-10-09T14:27:55;8.47;;;7.77;;
13704;SDS011;6924;52.122;9.952;2023-10-09T14:30:23;8.40;;;7.63;;
13704;SDS011;6924;52.122;9.952;2023-10-09T14:32:56;8.10;;;7.30;;
13704;SDS011;6924;52.122;9.952;2023-10-09T14:35:23;8.53;;;7.90;;
13704;SDS011;6924;52.122;9.952;2023-10-09T14:37:52;9.30;;;8.50;;
13704;SDS011;6924;52.122;9.952;2023-10-09T14:40:19;9.00;;;8.20;;
13704;SDS011;6924;52.122;9.952;2023-10-09T14:42:54;8.57;;;7.77;;
13704;SDS011;6924;52.122;9.952;2023-10-09T14:45:23;8.00;;;7.30;;
13704;SDS011;6924;52.122;9.952;2023-10-09T14:47:51;12.67;;;7.97;;
13704;SDS011;6924;52.122;9.952;2023-10-09T14:50:20;7.90;;;7.30;;
13704;SDS011;6924;52.122;9.952;2023-10-09T14:52:48;9.03;;;8.13;;
13704;SDS011;6924;52.122;9.952;2023-10-09T14:55:15;8.33;;;7.70;;
13704;SDS011;6924;52.122;9.952;2023-10-09T14:57:46;8.83;;;8.03;;
13704;SDS011;6924;52.122;9.952;2023-10-09T15:00:15;8.07;;;7.47;;
13704;SDS011;6924;52.122;9.952;2023-10-09T15:02:47;8.97;;;8.13;;
13704;SDS011;6924;52.122;9.952;2023-10-09T15:05:14;7.83;;;7.17;;
13704;SDS011;6924;52.122;9.952;2023-10-09T15:07:42;9.53;;;8.73;;
13704;SDS011;6924;52.122;9.952;2023-10-09T15:10:10;9.07;;;8.20;;
13704;SDS011;6924;52.122;9.952;2023-10-09T15:12:40;8.63;;;7.90;;
13704;SDS011;6924;52.122;9.952;2023-10-09T15:15:08;9.63;;;8.83;;
13704;SDS011;6924;52.122;9.952;2023-10-09T15:17:38;9.47;;;8.20;;
13704;SDS011;6924;52.122;9.952;2023-10-09T15:20:08;9.73;;;8.93;;
13704;SDS011;6924;52.122;9.952;2023-10-09T15:22:38;8.77;;;7.97;;
13704;SDS011;6924;52.122;9.952;2023-10-09T15:25:07;9.73;;;8.77;;
13704;SDS011;6924;52.122;9.952;2023-10-09T15:27:39;8.73;;;7.93;;
13704;SDS011;6924;52.122;9.952;2023-10-09T15:30:06;9.13;;;8.10;;